sensor_id;sensor_type;location;lat;lon;timestamp;P1;durP1;ratioP1;P2;durP2;ratioP2
14007;SDS011;61651;45.508;12.232;2023-06-05T00:02:45;4.13;;;2.63;;
14007;SDS011;61651;45.508;12.232;2023-06-05T00:05:48;4.78;;;2.85;;
14007;SDS011;61651;45.508;12.232;2023-06-05T00:08:50;3.05;;;2.25;;
14007;SDS011;61651;45.508;12.232;2023-06-05T00:11:52;6.13;;;2.55;;
14007;SDS011;61651;45.508;12.232;2023-06-05T00:14:55;3.72;;;2.10;;
14007;SDS011;61651;45.508;12.232;2023-06-05T00:17:57;2.67;;;2.13;;
14007;SDS011;61651;45.508;12.232;2023-06-05T00:21:00;3.17;;;2.30;;
14007;SDS011;61651;45.508;12.232;2023-06-05T00:24:04;3.42;;;2.30;;
14007;SDS011;61651;45.508;12.232;2023-06-05T00:27:06;2.90;;;1.75;;
14007;SDS011;61651;45.508;12.232;2023-06-05T00:30:10;5.57;;;2.15;;
14007;SDS011;61651;45.508;12.232;2023-06-05T00:33:13;3.30;;;1.80;;
14007;SDS011;61651;45.508;12.232;2023-06-05T00:36:15;2.90;;;1.88;;
14007;SDS011;61651;45.508;12.232;2023-06-05T00:39:18;2.95;;;2.10;;
14007;SDS011;61651;45.508;12.232;2023-06-05T00:42:20;4.78;;;1.98;;
14007;SDS011;61651;45.508;12.232;2023-06-05T00:45:23;2.75;;;1.95;;
14007;SDS011;61651;45.508;12.232;2023-06-05T00:48:25;2.72;;;1.77;;
14007;SDS011;61651;45.508;12.232;2023-06-05T00:51:27;1.90;;;1.58;;
14007;SDS011;61651;45.508;12.232;2023-06-05T00:54:30;1.77;;;1.67;;
14007;SDS011;61651;45.508;12.232;2023-06-05T00:57:32;5.13;;;2.03;;
14007;SDS011;61651;45.508;12.232;2023-06-05T01:00:37;3.47;;;1.95;;
14007;SDS011;61651;45.508;12.232;2023-06-05T01:03:39;3.05;;;1.98;;
14007;SDS011;61651;45.508;12.232;2023-06-05T01:06:41;2.58;;;1.90;;
14007;SDS011;61651;45.508;12.232;2023-06-05T01:09:43;2.85;;;1.77;;
14007;SDS011;61651;45.508;12.232;2023-06-05T01:12:46;2.13;;;1.90;;
14007;SDS011;61651;45.508;12.232;2023-06-05T01:16:00;1.75;;;1.65;;
14007;SDS011;61651;45.508;12.232;2023-06-05T01:19:04;4.80;;;2.00;;
14007;SDS011;61651;45.508;12.232;2023-06-05T01:22:10;2.28;;;1.70;;
14007;SDS011;61651;45.508;12.232;2023-06-05T01:25:14;2.78;;;1.90;;
14007;SDS011;61651;45.508;12.232;2023-06-05T01:28:19;2.67;;;2.13;;
14007;SDS011;61651;45.508;12.232;2023-06-05T01:31:24;3.65;;;1.88;;
14007;SDS011;61651;45.508;12.232;2023-06-05T01:34:28;3.08;;;2.13;;
14007;SDS011;61651;45.508;12.232;2023-06-05T01:37:30;2.88;;;2.00;;
14007;SDS011;61651;45.508;12.232;2023-06-05T01:40:37;2.42;;;1.80;;
14007;SDS011;61651;45.508;12.232;2023-06-05T01:43:41;2.47;;;2.05;;
14007;SDS011;61651;45.508;12.232;2023-06-05T01:46:45;2.40;;;2.20;;
14007;SDS011;61651;45.508;12.232;2023-06-05T01:49:48;2.47;;;2.10;;
14007;SDS011;61651;45.508;12.232;2023-06-05T01:52:50;2.10;;;1.88;;
14007;SDS011;61651;45.508;12.232;2023-06-05T01:55:54;2.45;;;2.10;;
14007;SDS011;61651;45.508;12.232;2023-06-05T01:58:57;3.80;;;2.15;;
14007;SDS011;61651;45.508;12.232;2023-06-05T02:01:59;4.15;;;2.40;;
14007;SDS011;61651;45.508;12.232;2023-06-05T02:05:04;2.20;;;2.00;;
14007;SDS011;61651;45.508;12.232;2023-06-05T02:08:07;2.67;;;2.30;;
14007;SDS011;61651;45.508;12.232;2023-06-05T02:11:11;2.47;;;1.98;;
14007;SDS011;61651;45.508;12.232;2023-06-05T02:14:13;2.58;;;2.10;;
14007;SDS011;61651;45.508;12.232;2023-06-05T02:17:15;3.05;;;2.40;;
14007;SDS011;61651;45.508;12.232;2023-06-05T02:20:17;3.95;;;2.45;;
14007;SDS011;61651;45.508;12.232;2023-06-05T02:23:20;3.63;;;2.55;;
14007;SDS011;61651;45.508;12.232;2023-06-05T02:26:24;2.80;;;2.40;;
14007;SDS011;61651;45.508;12.232;2023-06-05T02:29:26;3.55;;;2.17;;
14007;SDS011;61651;45.508;12.232;2023-06-05T02:32:28;2.97;;;2.40;;
14007;SDS011;61651;45.508;12.232;2023-06-05T02:35:31;4.75;;;2.40;;
14007;SDS011;61651;45.508;12.232;2023-06-05T02:38:33;3.17;;;2.20;;
14007;SDS011;61651;45.508;12.232;2023-06-05T02:41:37;2.95;;;2.22;;
14007;SDS011;61651;45.508;12.232;2023-06-05T02:44:39;6.07;;;2.40;;
14007;SDS011;61651;45.508;12.232;2023-06-05T02:47:41;2.22;;;2.08;;
14007;SDS011;61651;45.508;12.232;2023-06-05T02:50:43;2.95;;;2.30;;
14007;SDS011;61651;45.508;12.232;2023-06-05T02:53:45;2.50;;;2.30;;
14007;SDS011;61651;45.508;12.232;2023-06-05T02:56:48;3.13;;;2.67;;
14007;SDS011;61651;45.508;12.232;2023-06-05T02:59:50;3.50;;;2.58;;
14007;SDS011;61651;45.508;12.232;2023-06-05T03:02:52;3.10;;;2.63;;
14007;SDS011;61651;45.508;12.232;2023-06-05T03:05:56;3.72;;;2.90;;
14007;SDS011;61651;45.508;12.232;2023-06-05T03:09:04;4.38;;;2.78;;
14007;SDS011;61651;45.508;12.232;2023-06-05T03:12:08;4.70;;;4.30;;
14007;SDS011;61651;45.508;12.232;2023-06-05T03:15:10;3.38;;;3.08;;
14007;SDS011;61651;45.508;12.232;2023-06-05T03:18:12;3.38;;;3.08;;
14007;SDS011;61651;45.508;12.232;2023-06-05T03:21:14;3.00;;;2.70;;
14007;SDS011;61651;45.508;12.232;2023-06-05T03:24:16;4.00;;;2.85;;
14007;SDS011;61651;45.508;12.232;2023-06-05T03:27:19;3.60;;;2.58;;
14007;SDS011;61651;45.508;12.232;2023-06-05T03:30:21;3.13;;;2.70;;
14007;SDS011;61651;45.508;12.232;2023-06-05T03:33:23;3.20;;;2.90;;
14007;SDS011;61651;45.508;12.232;2023-06-05T03:36:25;4.30;;;2.90;;
14007;SDS011;61651;45.508;12.232;2023-06-05T03:39:28;3.03;;;2.72;;
14007;SDS011;61651;45.508;12.232;2023-06-05T03:42:31;2.83;;;2.58;;
14007;SDS011;61651;45.508;12.232;2023-06-05T03:45:34;4.97;;;2.97;;
14007;SDS011;61651;45.508;12.232;2023-06-05T03:48:38;4.03;;;2.67;;
14007;SDS011;61651;45.508;12.232;2023-06-05T03:51:40;2.55;;;2.35;;
14007;SDS011;61651;45.508;12.232;2023-06-05T03:54:43;3.20;;;2.90;;
14007;SDS011;61651;45.508;12.232;2023-06-05T03:57:48;3.00;;;2.70;;
14007;SDS011;61651;45.508;12.232;2023-06-05T04:00:51;3.20;;;2.90;;
14007;SDS011;61651;45.508;12.232;2023-06-05T04:03:54;3.63;;;3.25;;
14007;SDS011;61651;45.508;12.232;2023-06-05T04:06:56;2.88;;;2.45;;
14007;SDS011;61651;45.508;12.232;2023-06-05T04:09:58;2.85;;;2.65;;
14007;SDS011;61651;45.508;12.232;2023-06-05T04:13:01;2.75;;;2.55;;
14007;SDS011;61651;45.508;12.232;2023-06-05T04:16:04;3.15;;;2.85;;
14007;SDS011;61651;45.508;12.232;2023-06-05T04:19:06;2.88;;;2.67;;
14007;SDS011;61651;45.508;12.232;2023-06-05T04:22:09;2.97;;;2.70;;
14007;SDS011;61651;45.508;12.232;2023-06-05T04:25:12;3.35;;;2.67;;
14007;SDS011;61651;45.508;12.232;2023-06-05T04:28:15;3.28;;;2.97;;
14007;SDS011;61651;45.508;12.232;2023-06-05T04:31:17;4.03;;;2.97;;
14007;SDS011;61651;45.508;12.232;2023-06-05T04:34:19;3.05;;;2.80;;
14007;SDS011;61651;45.508;12.232;2023-06-05T04:37:21;2.53;;;2.33;;
14007;SDS011;61651;45.508;12.232;2023-06-05T04:40:23;2.92;;;2.65;;
14007;SDS011;61651;45.508;12.232;2023-06-05T04:43:26;3.92;;;2.90;;
14007;SDS011;61651;45.508;12.232;2023-06-05T04:46:28;3.67;;;3.17;;
14007;SDS011;61651;45.508;12.232;2023-06-05T04:49:31;3.65;;;2.75;;
14007;SDS011;61651;45.508;12.232;2023-06-05T04:52:33;3.33;;;3.05;;
14007;SDS011;61651;45.508;12.232;2023-06-05T04:55:36;4.30;;;3.33;;
14007;SDS011;61651;45.508;12.232;2023-06-05T04:58:40;4.65;;;3.53;;
14007;SDS011;61651;45.508;12.232;2023-06-05T05:01:42;3.90;;;3.38;;
14007;SDS011;61651;45.508;12.232;2023-06-05T05:04:44;3.50;;;3.20;;
14007;SDS011;61651;45.508;12.232;2023-06-05T05:07:46;4.15;;;3.28;;
14007;SDS011;61651;45.508;12.232;2023-06-05T05:10:48;3.78;;;3.33;;
14007;SDS011;61651;45.508;12.232;2023-06-05T05:13:51;4.00;;;3.70;;
14007;SDS011;61651;45.508;12.232;2023-06-05T05:16:53;6.22;;;4.10;;
14007;SDS011;61651;45.508;12.232;2023-06-05T05:19:56;4.10;;;3.70;;
14007;SDS011;61651;45.508;12.232;2023-06-05T05:22:58;4.13;;;3.30;;
14007;SDS011;61651;45.508;12.232;2023-06-05T05:26:01;4.30;;;3.90;;
14007;SDS011;61651;45.508;12.232;2023-06-05T05:29:05;4.40;;;3.83;;
14007;SDS011;61651;45.508;12.232;2023-06-05T05:32:07;4.15;;;3.75;;
14007;SDS011;61651;45.508;12.232;2023-06-05T05:35:09;4.55;;;4.00;;
14007;SDS011;61651;45.508;12.232;2023-06-05T05:38:11;4.53;;;4.13;;
14007;SDS011;61651;45.508;12.232;2023-06-05T05:41:13;4.13;;;3.83;;
14007;SDS011;61651;45.508;12.232;2023-06-05T05:44:17;4.88;;;4.47;;
14007;SDS011;61651;45.508;12.232;2023-06-05T05:47:19;4.90;;;4.50;;
14007;SDS011;61651;45.508;12.232;2023-06-05T05:50:21;4.72;;;4.20;;
14007;SDS011;61651;45.508;12.232;2023-06-05T05:53:23;4.90;;;4.40;;
14007;SDS011;61651;45.508;12.232;2023-06-05T05:56:25;4.10;;;3.70;;
14007;SDS011;61651;45.508;12.232;2023-06-05T05:59:29;4.53;;;4.13;;
14007;SDS011;61651;45.508;12.232;2023-06-05T06:02:31;5.53;;;4.78;;
14007;SDS011;61651;45.508;12.232;2023-06-05T06:05:33;5.95;;;4.15;;
14007;SDS011;61651;45.508;12.232;2023-06-05T06:08:36;5.03;;;4.28;;
14007;SDS011;61651;45.508;12.232;2023-06-05T06:11:38;7.50;;;4.70;;
14007;SDS011;61651;45.508;12.232;2023-06-05T06:14:41;5.05;;;4.30;;
14007;SDS011;61651;45.508;12.232;2023-06-05T06:17:43;4.53;;;4.13;;
14007;SDS011;61651;45.508;12.232;2023-06-05T06:20:45;5.80;;;4.28;;
14007;SDS011;61651;45.508;12.232;2023-06-05T06:23:47;5.00;;;4.50;;
14007;SDS011;61651;45.508;12.232;2023-06-05T06:26:49;4.25;;;3.85;;
14007;SDS011;61651;45.508;12.232;2023-06-05T06:29:53;4.43;;;4.03;;
14007;SDS011;61651;45.508;12.232;2023-06-05T06:32:57;5.63;;;4.82;;
14007;SDS011;61651;45.508;12.232;2023-06-05T06:35:59;4.90;;;3.92;;
14007;SDS011;61651;45.508;12.232;2023-06-05T06:39:01;4.53;;;3.70;;
14007;SDS011;61651;45.508;12.232;2023-06-05T06:42:04;4.97;;;3.45;;
14007;SDS011;61651;45.508;12.232;2023-06-05T06:45:08;4.05;;;3.63;;
14007;SDS011;61651;45.508;12.232;2023-06-05T06:48:11;4.00;;;3.60;;
14007;SDS011;61651;45.508;12.232;2023-06-05T06:51:13;3.85;;;3.47;;
14007;SDS011;61651;45.508;12.232;2023-06-05T06:54:15;4.60;;;3.78;;
14007;SDS011;61651;45.508;12.232;2023-06-05T06:57:17;4.15;;;3.75;;
14007;SDS011;61651;45.508;12.232;2023-06-05T07:00:21;3.60;;;3.30;;
14007;SDS011;61651;45.508;12.232;2023-06-05T07:03:23;5.50;;;3.83;;
14007;SDS011;61651;45.508;12.232;2023-06-05T07:06:25;5.78;;;3.65;;
14007;SDS011;61651;45.508;12.232;2023-06-05T07:09:27;4.07;;;3.78;;
14007;SDS011;61651;45.508;12.232;2023-06-05T07:12:29;4.78;;;3.58;;
14007;SDS011;61651;45.508;12.232;2023-06-05T07:15:33;4.32;;;3.75;;
14007;SDS011;61651;45.508;12.232;2023-06-05T07:18:35;3.70;;;3.40;;
14007;SDS011;61651;45.508;12.232;2023-06-05T07:21:37;3.53;;;3.22;;
14007;SDS011;61651;45.508;12.232;2023-06-05T07:24:40;4.13;;;2.90;;
14007;SDS011;61651;45.508;12.232;2023-06-05T07:27:43;3.20;;;2.90;;
14007;SDS011;61651;45.508;12.232;2023-06-05T07:30:46;3.33;;;3.03;;
14007;SDS011;61651;45.508;12.232;2023-06-05T07:33:50;3.20;;;2.90;;
14007;SDS011;61651;45.508;12.232;2023-06-05T07:36:52;3.55;;;3.25;;
14007;SDS011;61651;45.508;12.232;2023-06-05T07:39:55;3.60;;;2.95;;
14007;SDS011;61651;45.508;12.232;2023-06-05T07:42:57;4.10;;;3.70;;
14007;SDS011;61651;45.508;12.232;2023-06-05T07:46:00;2.70;;;2.50;;
14007;SDS011;61651;45.508;12.232;2023-06-05T07:49:04;3.25;;;2.97;;
14007;SDS011;61651;45.508;12.232;2023-06-05T07:52:06;5.18;;;3.38;;
14007;SDS011;61651;45.508;12.232;2023-06-05T07:55:08;4.95;;;3.50;;
14007;SDS011;61651;45.508;12.232;2023-06-05T07:58:10;4.22;;;3.58;;
14007;SDS011;61651;45.508;12.232;2023-06-05T08:01:14;3.17;;;2.88;;
14007;SDS011;61651;45.508;12.232;2023-06-05T08:04:16;3.65;;;3.03;;
14007;SDS011;61651;45.508;12.232;2023-06-05T08:07:19;4.80;;;3.10;;
14007;SDS011;61651;45.508;12.232;2023-06-05T08:10:21;2.67;;;2.47;;
14007;SDS011;61651;45.508;12.232;2023-06-05T08:13:23;3.35;;;3.05;;
14007;SDS011;61651;45.508;12.232;2023-06-05T08:16:27;3.03;;;2.78;;
14007;SDS011;61651;45.508;12.232;2023-06-05T08:19:29;3.47;;;3.17;;
14007;SDS011;61651;45.508;12.232;2023-06-05T08:22:31;3.25;;;2.95;;
14007;SDS011;61651;45.508;12.232;2023-06-05T08:25:33;3.20;;;2.78;;
14007;SDS011;61651;45.508;12.232;2023-06-05T08:28:37;3.35;;;3.00;;
14007;SDS011;61651;45.508;12.232;2023-06-05T08:31:41;2.85;;;2.65;;
14007;SDS011;61651;45.508;12.232;2023-06-05T08:34:43;3.60;;;2.75;;
14007;SDS011;61651;45.508;12.232;2023-06-05T08:37:45;3.25;;;2.95;;
14007;SDS011;61651;45.508;12.232;2023-06-05T08:40:47;3.00;;;2.70;;
14007;SDS011;61651;45.508;12.232;2023-06-05T08:43:57;2.85;;;2.63;;
14007;SDS011;61651;45.508;12.232;2023-06-05T08:47:02;3.20;;;2.90;;
14007;SDS011;61651;45.508;12.232;2023-06-05T08:50:06;2.75;;;2.55;;
14007;SDS011;61651;45.508;12.232;2023-06-05T08:53:09;3.40;;;2.42;;
14007;SDS011;61651;45.508;12.232;2023-06-05T08:56:13;2.50;;;2.30;;
14007;SDS011;61651;45.508;12.232;2023-06-05T08:59:15;2.75;;;2.55;;
14007;SDS011;61651;45.508;12.232;2023-06-05T09:02:20;2.50;;;2.30;;
14007;SDS011;61651;45.508;12.232;2023-06-05T09:05:22;3.15;;;2.40;;
14007;SDS011;61651;45.508;12.232;2023-06-05T09:08:27;2.53;;;2.33;;
14007;SDS011;61651;45.508;12.232;2023-06-05T09:11:31;3.97;;;2.50;;
14007;SDS011;61651;45.508;12.232;2023-06-05T09:14:33;2.42;;;2.22;;
14007;SDS011;61651;45.508;12.232;2023-06-05T09:17:37;2.63;;;2.42;;
14007;SDS011;61651;45.508;12.232;2023-06-05T09:20:40;2.65;;;2.45;;
14007;SDS011;61651;45.508;12.232;2023-06-05T09:23:45;3.22;;;2.45;;
14007;SDS011;61651;45.508;12.232;2023-06-05T09:26:48;2.20;;;1.67;;
14007;SDS011;61651;45.508;12.232;2023-06-05T09:29:56;2.13;;;2.00;;
14007;SDS011;61651;45.508;12.232;2023-06-05T09:33:11;2.35;;;2.15;;
14007;SDS011;61651;45.508;12.232;2023-06-05T09:36:15;2.45;;;2.25;;
14007;SDS011;61651;45.508;12.232;2023-06-05T09:39:17;2.20;;;1.85;;
14007;SDS011;61651;45.508;12.232;2023-06-05T09:42:30;1.73;;;1.63;;
14007;SDS011;61651;45.508;12.232;2023-06-05T09:45:40;2.00;;;1.90;;
14007;SDS011;61651;45.508;12.232;2023-06-05T09:48:52;1.90;;;1.80;;
14007;SDS011;61651;45.508;12.232;2023-06-05T09:52:00;3.22;;;1.92;;
14007;SDS011;61651;45.508;12.232;2023-06-05T09:55:02;2.00;;;1.80;;
14007;SDS011;61651;45.508;12.232;2023-06-05T09:58:06;2.05;;;1.80;;
14007;SDS011;61651;45.508;12.232;2023-06-05T10:01:14;1.70;;;1.60;;
14007;SDS011;61651;45.508;12.232;2023-06-05T10:04:20;2.20;;;2.00;;
14007;SDS011;61651;45.508;12.232;2023-06-05T10:07:24;1.95;;;1.83;;
14007;SDS011;61651;45.508;12.232;2023-06-05T10:10:26;2.40;;;2.10;;
14007;SDS011;61651;45.508;12.232;2023-06-05T10:13:30;1.70;;;1.60;;
14007;SDS011;61651;45.508;12.232;2023-06-05T10:16:34;2.25;;;1.70;;
14007;SDS011;61651;45.508;12.232;2023-06-05T10:19:38;1.88;;;1.70;;
14007;SDS011;61651;45.508;12.232;2023-06-05T10:22:43;1.80;;;1.70;;
14007;SDS011;61651;45.508;12.232;2023-06-05T10:25:46;1.70;;;1.60;;
14007;SDS011;61651;45.508;12.232;2023-06-05T10:28:51;2.00;;;1.80;;
14007;SDS011;61651;45.508;12.232;2023-06-05T10:32:03;1.73;;;1.63;;
14007;SDS011;61651;45.508;12.232;2023-06-05T10:35:12;1.75;;;1.60;;
14007;SDS011;61651;45.508;12.232;2023-06-05T10:38:25;1.60;;;1.50;;
14007;SDS011;61651;45.508;12.232;2023-06-05T10:41:28;2.13;;;1.58;;
14007;SDS011;61651;45.508;12.232;2023-06-05T10:44:40;1.75;;;1.65;;
14007;SDS011;61651;45.508;12.232;2023-06-05T10:47:49;1.83;;;1.73;;
14007;SDS011;61651;45.508;12.232;2023-06-05T10:50:55;1.90;;;1.80;;
14007;SDS011;61651;45.508;12.232;2023-06-05T10:58:04;2.28;;;2.08;;
14007;SDS011;61651;45.508;12.232;2023-06-05T11:01:18;1.92;;;1.83;;
14007;SDS011;61651;45.508;12.232;2023-06-05T11:04:21;2.67;;;2.30;;
14007;SDS011;61651;45.508;12.232;2023-06-05T11:07:26;2.30;;;2.10;;
14007;SDS011;61651;45.508;12.232;2023-06-05T11:10:30;2.08;;;1.95;;
14007;SDS011;61651;45.508;12.232;2023-06-05T11:13:51;1.73;;;1.63;;
14007;SDS011;61651;45.508;12.232;2023-06-05T11:16:54;1.80;;;1.70;;
14007;SDS011;61651;45.508;12.232;2023-06-05T11:19:56;2.20;;;2.00;;
14007;SDS011;61651;45.508;12.232;2023-06-05T11:23:08;2.08;;;1.98;;
14007;SDS011;61651;45.508;12.232;2023-06-05T11:29:42;2.38;;;2.17;;
14007;SDS011;61651;45.508;12.232;2023-06-05T11:32:45;2.83;;;1.92;;
14007;SDS011;61651;45.508;12.232;2023-06-05T11:35:49;2.50;;;2.30;;
14007;SDS011;61651;45.508;12.232;2023-06-05T11:38:55;2.22;;;2.03;;
14007;SDS011;61651;45.508;12.232;2023-06-05T11:41:58;2.13;;;1.92;;
14007;SDS011;61651;45.508;12.232;2023-06-05T11:45:00;2.55;;;2.35;;
14007;SDS011;61651;45.508;12.232;2023-06-05T11:48:03;2.17;;;1.98;;
14007;SDS011;61651;45.508;12.232;2023-06-05T11:51:06;2.38;;;2.17;;
14007;SDS011;61651;45.508;12.232;2023-06-05T11:54:09;2.60;;;2.40;;
14007;SDS011;61651;45.508;12.232;2023-06-05T11:57:15;2.00;;;1.90;;
14007;SDS011;61651;45.508;12.232;2023-06-05T12:00:22;2.25;;;2.15;;
14007;SDS011;61651;45.508;12.232;2023-06-05T12:03:25;2.40;;;2.20;;
14007;SDS011;61651;45.508;12.232;2023-06-05T12:06:28;2.45;;;2.25;;
14007;SDS011;61651;45.508;12.232;2023-06-05T12:09:32;2.22;;;2.03;;
14007;SDS011;61651;45.508;12.232;2023-06-05T12:12:34;2.72;;;2.53;;
14007;SDS011;61651;45.508;12.232;2023-06-05T12:15:36;2.30;;;2.10;;
14007;SDS011;61651;45.508;12.232;2023-06-05T12:18:38;2.10;;;2.00;;
14007;SDS011;61651;45.508;12.232;2023-06-05T12:21:40;2.42;;;2.22;;
14007;SDS011;61651;45.508;12.232;2023-06-05T12:24:44;2.00;;;1.90;;
14007;SDS011;61651;45.508;12.232;2023-06-05T12:27:46;2.50;;;2.30;;
14007;SDS011;61651;45.508;12.232;2023-06-05T12:30:48;3.10;;;2.80;;
14007;SDS011;61651;45.508;12.232;2023-06-05T12:33:50;2.38;;;2.17;;
14007;SDS011;61651;45.508;12.232;2023-06-05T12:36:52;2.53;;;2.33;;
14007;SDS011;61651;45.508;12.232;2023-06-05T12:39:58;2.90;;;2.58;;
14007;SDS011;61651;45.508;12.232;2023-06-05T12:43:00;3.25;;;2.95;;
14007;SDS011;61651;45.508;12.232;2023-06-05T12:46:03;3.13;;;2.85;;
14007;SDS011;61651;45.508;12.232;2023-06-05T12:49:06;3.15;;;2.95;;
14007;SDS011;61651;45.508;12.232;2023-06-05T12:52:08;2.90;;;2.70;;
14007;SDS011;61651;45.508;12.232;2023-06-05T12:55:11;2.65;;;2.45;;
14007;SDS011;61651;45.508;12.232;2023-06-05T12:58:13;3.28;;;3.00;;
14007;SDS011;61651;45.508;12.232;2023-06-05T13:01:16;2.67;;;2.47;;
14007;SDS011;61651;45.508;12.232;2023-06-05T13:04:18;3.20;;;2.50;;
14007;SDS011;61651;45.508;12.232;2023-06-05T13:07:20;2.45;;;2.25;;
14007;SDS011;61651;45.508;12.232;2023-06-05T13:10:23;2.60;;;2.40;;
14007;SDS011;61651;45.508;12.232;2023-06-05T13:13:26;2.70;;;2.35;;
14007;SDS011;61651;45.508;12.232;2023-06-05T13:16:29;2.38;;;2.17;;
14007;SDS011;61651;45.508;12.232;2023-06-05T13:19:31;2.38;;;2.03;;
14007;SDS011;61651;45.508;12.232;2023-06-05T13:22:33;2.33;;;2.13;;
14007;SDS011;61651;45.508;12.232;2023-06-05T13:25:36;2.30;;;2.10;;
14007;SDS011;61651;45.508;12.232;2023-06-05T13:28:40;1.80;;;1.70;;
14007;SDS011;61651;45.508;12.232;2023-06-05T13:31:44;1.85;;;1.75;;
14007;SDS011;61651;45.508;12.232;2023-06-05T13:34:46;1.92;;;1.80;;
14007;SDS011;61651;45.508;12.232;2023-06-05T13:37:48;1.60;;;1.50;;
14007;SDS011;61651;45.508;12.232;2023-06-05T13:40:52;1.77;;;1.67;;
14007;SDS011;61651;45.508;12.232;2023-06-05T13:43:54;2.00;;;1.90;;
14007;SDS011;61651;45.508;12.232;2023-06-05T13:46:58;2.05;;;1.80;;
14007;SDS011;61651;45.508;12.232;2023-06-05T13:50:02;2.35;;;2.15;;
14007;SDS011;61651;45.508;12.232;2023-06-05T13:53:05;2.33;;;2.03;;
14007;SDS011;61651;45.508;12.232;2023-06-05T13:56:08;2.13;;;1.92;;
14007;SDS011;61651;45.508;12.232;2023-06-05T13:59:10;1.80;;;1.70;;
14007;SDS011;61651;45.508;12.232;2023-06-05T14:02:12;1.85;;;1.75;;
14007;SDS011;61651;45.508;12.232;2023-06-05T14:05:14;1.70;;;1.60;;
14007;SDS011;61651;45.508;12.232;2023-06-05T14:08:16;3.70;;;2.20;;
14007;SDS011;61651;45.508;12.232;2023-06-05T14:11:19;1.77;;;1.67;;
14007;SDS011;61651;45.508;12.232;2023-06-05T14:14:22;1.80;;;1.67;;
14007;SDS011;61651;45.508;12.232;2023-06-05T14:17:24;1.80;;;1.70;;
14007;SDS011;61651;45.508;12.232;2023-06-05T14:20:26;1.70;;;1.60;;
14007;SDS011;61651;45.508;12.232;2023-06-05T14:23:29;1.90;;;1.80;;
14007;SDS011;61651;45.508;12.232;2023-06-05T14:26:33;1.63;;;1.52;;
14007;SDS011;61651;45.508;12.232;2023-06-05T14:29:35;1.80;;;1.70;;
14007;SDS011;61651;45.508;12.232;2023-06-05T14:32:37;1.70;;;1.60;;
14007;SDS011;61651;45.508;12.232;2023-06-05T14:35:39;1.98;;;1.65;;
14007;SDS011;61651;45.508;12.232;2023-06-05T14:38:41;1.80;;;1.70;;
14007;SDS011;61651;45.508;12.232;2023-06-05T14:41:45;1.83;;;1.73;;
14007;SDS011;61651;45.508;12.232;2023-06-05T14:44:49;2.22;;;1.50;;
14007;SDS011;61651;45.508;12.232;2023-06-05T14:47:51;1.80;;;1.70;;
14007;SDS011;61651;45.508;12.232;2023-06-05T14:50:53;1.65;;;1.55;;
14007;SDS011;61651;45.508;12.232;2023-06-05T14:53:56;1.95;;;1.83;;
14007;SDS011;61651;45.508;12.232;2023-06-05T14:56:59;1.95;;;1.75;;
14007;SDS011;61651;45.508;12.232;2023-06-05T15:00:01;1.60;;;1.50;;
14007;SDS011;61651;45.508;12.232;2023-06-05T15:03:07;5.30;;;1.90;;
14007;SDS011;61651;45.508;12.232;2023-06-05T15:06:13;2.10;;;1.90;;
14007;SDS011;61651;45.508;12.232;2023-06-05T15:09:15;1.85;;;1.75;;
14007;SDS011;61651;45.508;12.232;2023-06-05T15:12:18;1.88;;;1.73;;
14007;SDS011;61651;45.508;12.232;2023-06-05T15:15:20;1.67;;;1.58;;
14007;SDS011;61651;45.508;12.232;2023-06-05T15:18:23;2.03;;;1.83;;
14007;SDS011;61651;45.508;12.232;2023-06-05T15:21:25;2.00;;;1.80;;
14007;SDS011;61651;45.508;12.232;2023-06-05T15:24:27;1.70;;;1.60;;
14007;SDS011;61651;45.508;12.232;2023-06-05T15:27:31;1.92;;;1.83;;
14007;SDS011;61651;45.508;12.232;2023-06-05T15:30:34;1.83;;;1.73;;
14007;SDS011;61651;45.508;12.232;2023-06-05T15:33:36;1.83;;;1.73;;
14007;SDS011;61651;45.508;12.232;2023-06-05T15:36:38;1.75;;;1.30;;
14007;SDS011;61651;45.508;12.232;2023-06-05T15:39:41;2.05;;;1.60;;
14007;SDS011;61651;45.508;12.232;2023-06-05T15:42:44;3.17;;;1.80;;
14007;SDS011;61651;45.508;12.232;2023-06-05T15:46:03;2.10;;;1.90;;
14007;SDS011;61651;45.508;12.232;2023-06-05T15:49:05;1.90;;;1.80;;
14007;SDS011;61651;45.508;12.232;2023-06-05T15:52:07;1.70;;;1.60;;
14007;SDS011;61651;45.508;12.232;2023-06-05T15:55:09;2.25;;;1.90;;
14007;SDS011;61651;45.508;12.232;2023-06-05T15:58:12;2.28;;;2.08;;
14007;SDS011;61651;45.508;12.232;2023-06-05T16:01:15;2.47;;;2.28;;
14007;SDS011;61651;45.508;12.232;2023-06-05T16:04:17;3.20;;;2.33;;
14007;SDS011;61651;45.508;12.232;2023-06-05T16:07:19;2.30;;;2.10;;
14007;SDS011;61651;45.508;12.232;2023-06-05T16:10:21;2.92;;;2.38;;
14007;SDS011;61651;45.508;12.232;2023-06-05T16:13:25;2.50;;;2.30;;
14007;SDS011;61651;45.508;12.232;2023-06-05T16:16:26;2.97;;;2.15;;
14007;SDS011;61651;45.508;12.232;2023-06-05T16:19:28;2.20;;;2.00;;
14007;SDS011;61651;45.508;12.232;2023-06-05T16:22:30;2.50;;;2.30;;
14007;SDS011;61651;45.508;12.232;2023-06-05T16:25:32;2.70;;;2.40;;
14007;SDS011;61651;45.508;12.232;2023-06-05T16:28:36;2.63;;;2.42;;
14007;SDS011;61651;45.508;12.232;2023-06-05T16:31:38;2.35;;;2.15;;
14007;SDS011;61651;45.508;12.232;2023-06-05T16:34:41;2.60;;;2.40;;
14007;SDS011;61651;45.508;12.232;2023-06-05T16:37:43;3.45;;;2.50;;
14007;SDS011;61651;45.508;12.232;2023-06-05T16:40:45;2.22;;;2.10;;
14007;SDS011;61651;45.508;12.232;2023-06-05T16:43:48;1.95;;;1.85;;
14007;SDS011;61651;45.508;12.232;2023-06-05T16:46:50;3.33;;;2.38;;
14007;SDS011;61651;45.508;12.232;2023-06-05T16:49:52;2.70;;;2.50;;
14007;SDS011;61651;45.508;12.232;2023-06-05T16:52:54;3.38;;;2.38;;
14007;SDS011;61651;45.508;12.232;2023-06-05T16:55:56;2.78;;;2.47;;
14007;SDS011;61651;45.508;12.232;2023-06-05T16:59:00;2.42;;;2.05;;
14007;SDS011;61651;45.508;12.232;2023-06-05T17:02:03;2.60;;;2.40;;
14007;SDS011;61651;45.508;12.232;2023-06-05T17:05:05;2.97;;;2.65;;
14007;SDS011;61651;45.508;12.232;2023-06-05T17:08:08;3.63;;;2.15;;
14007;SDS011;61651;45.508;12.232;2023-06-05T17:11:10;3.03;;;1.95;;
14007;SDS011;61651;45.508;12.232;2023-06-05T17:14:13;2.83;;;2.50;;
14007;SDS011;61651;45.508;12.232;2023-06-05T17:17:15;2.45;;;2.25;;
14007;SDS011;61651;45.508;12.232;2023-06-05T17:20:17;2.40;;;2.20;;
14007;SDS011;61651;45.508;12.232;2023-06-05T17:23:19;3.17;;;2.22;;
14007;SDS011;61651;45.508;12.232;2023-06-05T17:26:21;2.60;;;2.40;;
14007;SDS011;61651;45.508;12.232;2023-06-05T17:29:26;3.28;;;2.33;;
14007;SDS011;61651;45.508;12.232;2023-06-05T17:32:28;2.25;;;2.05;;
14007;SDS011;61651;45.508;12.232;2023-06-05T17:35:31;2.50;;;2.10;;
14007;SDS011;61651;45.508;12.232;2023-06-05T17:38:33;4.53;;;2.53;;
14007;SDS011;61651;45.508;12.232;2023-06-05T17:41:35;2.40;;;2.20;;
14007;SDS011;61651;45.508;12.232;2023-06-05T17:44:39;2.50;;;2.25;;
14007;SDS011;61651;45.508;12.232;2023-06-05T17:47:41;2.33;;;2.13;;
14007;SDS011;61651;45.508;12.232;2023-06-05T17:50:43;2.35;;;2.15;;
14007;SDS011;61651;45.508;12.232;2023-06-05T17:53:45;2.40;;;2.20;;
14007;SDS011;61651;45.508;12.232;2023-06-05T17:56:47;2.35;;;2.20;;
14007;SDS011;61651;45.508;12.232;2023-06-05T17:59:50;2.45;;;2.25;;
14007;SDS011;61651;45.508;12.232;2023-06-05T18:02:52;3.28;;;2.33;;
14007;SDS011;61651;45.508;12.232;2023-06-05T18:05:54;3.22;;;2.22;;
14007;SDS011;61651;45.508;12.232;2023-06-05T18:08:56;3.53;;;2.88;;
14007;SDS011;61651;45.508;12.232;2023-06-05T18:12:00;4.18;;;2.80;;
14007;SDS011;61651;45.508;12.232;2023-06-05T18:15:03;5.05;;;2.92;;